createdAt,value
2023-03-26T02:05:00.392Z,7.50
2023-03-26T02:07:39.648Z,7.60
2023-03-26T02:10:23.789Z,7.60
2023-03-26T02:12:58.744Z,7.70
2023-03-26T02:15:58.258Z,7.80
2023-03-26T02:18:39.259Z,7.80
2023-03-26T02:21:16.000Z,7.90
2023-03-26T02:23:47.129Z,8.00
2023-03-26T02:26:17.071Z,8.00
2023-03-26T02:29:03.620Z,8.00
2023-03-26T02:31:41.077Z,8.00
2023-03-26T02:34:24.203Z,8.10
2023-03-26T02:37:09.846Z,8.20
2023-03-26T02:39:42.777Z,8.20
2023-03-26T02:42:32.680Z,8.30
2023-03-26T02:45:00.096Z,8.30
2023-03-26T02:47:54.976Z,8.30
2023-03-26T02:50:50.870Z,8.30
2023-03-26T02:53:39.670Z,8.40
2023-03-26T02:56:24.290Z,8.40
2023-03-26T02:59:19.795Z,8.50
2023-03-26T03:01:58.300Z,8.50
2023-03-26T03:04:25.586Z,8.50
2023-03-26T03:06:57.585Z,8.60
2023-03-26T03:09:27.462Z,8.50
2023-03-26T03:12:39.381Z,8.50
2023-03-26T03:15:11.109Z,8.50
2023-03-26T03:17:52.255Z,8.50
2023-03-26T03:20:25.901Z,8.50
2023-03-26T03:22:57.257Z,8.50
2023-03-26T03:25:30.083Z,8.50
2023-03-26T03:28:03.008Z,8.50
2023-03-26T03:30:32.909Z,8.50
2023-03-26T03:33:48.039Z,8.50
2023-03-26T03:36:24.131Z,8.50
2023-03-26T03:39:18.339Z,8.50
2023-03-26T03:41:48.044Z,8.50
2023-03-26T03:44:23.176Z,8.50
2023-03-26T03:47:18.111Z,8.60
2023-03-26T03:49:53.058Z,8.60
2023-03-26T03:52:43.861Z,8.60
2023-03-26T03:55:53.783Z,8.60
2023-03-26T03:58:33.435Z,8.60
2023-03-26T04:01:17.534Z,8.60
2023-03-26T04:04:19.113Z,8.60
2023-03-26T04:06:58.479Z,8.60
2023-03-26T04:09:34.422Z,8.60
2023-03-26T04:12:09.034Z,8.60
2023-03-26T04:14:41.954Z,8.60
2023-03-26T04:17:17.525Z,8.60
2023-03-26T04:19:53.201Z,8.40
2023-03-26T04:22:21.670Z,8.40
2023-03-26T04:24:55.055Z,8.40
2023-03-26T04:27:30.462Z,8.40
2023-03-26T04:30:15.767Z,8.40
2023-03-26T04:32:44.993Z,8.40
2023-03-26T04:35:16.792Z,8.40
2023-03-26T04:37:50.232Z,8.40
2023-03-26T04:40:23.169Z,8.30
2023-03-26T04:43:06.408Z,8.30
2023-03-26T04:46:03.015Z,8.30
2023-03-26T04:48:35.758Z,8.20
2023-03-26T04:51:02.911Z,8.20
2023-03-26T04:53:30.162Z,8.10
2023-03-26T04:56:26.393Z,8.00
2023-03-26T04:59:38.455Z,8.00
2023-03-26T05:02:13.087Z,7.90
2023-03-26T05:05:06.779Z,7.90
2023-03-26T05:07:38.632Z,7.90
2023-03-26T05:10:09.976Z,7.80
2023-03-26T05:12:41.688Z,7.80
2023-03-26T05:15:14.372Z,7.80
2023-03-26T05:18:13.510Z,7.70
2023-03-26T05:20:48.112Z,7.70
2023-03-26T05:23:15.133Z,7.70
2023-03-26T05:25:47.345Z,7.70
2023-03-26T05:28:23.348Z,7.60
2023-03-26T05:31:11.023Z,7.60
2023-03-26T05:33:40.642Z,7.40
2023-03-26T05:36:13.476Z,7.40
2023-03-26T05:38:47.354Z,7.30
2023-03-26T05:41:18.524Z,7.30
2023-03-26T05:43:49.117Z,7.20
2023-03-26T05:46:22.094Z,7.20
2023-03-26T05:48:50.070Z,7.20
2023-03-26T05:51:17.185Z,7.20
2023-03-26T05:53:55.333Z,7.20
2023-03-26T05:56:48.343Z,7.10
2023-03-26T05:59:33.587Z,7.00
2023-03-26T06:02:23.950Z,7.00
2023-03-26T06:05:21.138Z,7.00
2023-03-26T06:08:04.074Z,7.00
2023-03-26T06:10:39.392Z,7.00
2023-03-26T06:13:06.456Z,7.10
2023-03-26T06:15:36.660Z,7.10
2023-03-26T06:18:13.909Z,7.10
2023-03-26T06:20:51.220Z,7.10
2023-03-26T06:23:31.557Z,7.10
2023-03-26T06:26:30.956Z,7.10
2023-03-26T06:29:18.500Z,7.10
2023-03-26T06:32:01.438Z,7.10
2023-03-26T06:34:43.392Z,7.10
2023-03-26T06:37:10.393Z,7.20
2023-03-26T06:39:37.263Z,7.20
2023-03-26T06:42:32.126Z,7.20
2023-03-26T06:45:29.323Z,7.30
2023-03-26T06:48:34.386Z,7.40
2023-03-26T06:51:13.267Z,7.50
2023-03-26T06:53:58.510Z,7.60
2023-03-26T06:56:49.168Z,7.70
2023-03-26T06:59:39.455Z,7.80
2023-03-26T07:02:24.858Z,7.90
2023-03-26T07:05:10.355Z,8.10
2023-03-26T07:07:55.975Z,8.30
2023-03-26T07:10:47.598Z,8.50
2023-03-26T07:13:25.377Z,8.70
2023-03-26T07:16:18.237Z,8.90
2023-03-26T07:19:08.295Z,9.00
2023-03-26T07:21:37.520Z,9.20
2023-03-26T07:24:14.234Z,9.40
2023-03-26T07:27:11.077Z,9.60
2023-03-26T07:29:43.538Z,9.60
2023-03-26T07:33:00.693Z,9.60
2023-03-26T07:35:55.612Z,9.70
2023-03-26T07:38:34.007Z,9.70
2023-03-26T07:41:57.109Z,9.80
2023-03-26T07:44:51.205Z,9.90
2023-03-26T07:47:45.210Z,10.00
2023-03-26T07:50:21.576Z,10.20
2023-03-26T07:53:17.951Z,10.20
2023-03-26T07:56:19.860Z,10.10
2023-03-26T07:59:01.498Z,10.00
2023-03-26T08:02:37.455Z,10.00
2023-03-26T08:05:34.149Z,10.00
2023-03-26T08:08:36.635Z,10.00
2023-03-26T08:11:45.624Z,10.00
2023-03-26T08:14:18.125Z,10.00
2023-03-26T08:17:06.911Z,10.00
2023-03-26T08:20:02.373Z,10.10
2023-03-26T08:22:38.368Z,10.20
2023-03-26T08:25:16.772Z,10.10
2023-03-26T08:28:13.723Z,10.00
2023-03-26T08:30:40.938Z,10.10
2023-03-26T08:33:18.063Z,10.10
2023-03-26T08:35:46.296Z,10.10
2023-03-26T08:38:16.005Z,10.00
2023-03-26T08:41:11.771Z,10.10
2023-03-26T08:44:06.272Z,10.20
2023-03-26T08:46:46.445Z,10.20
2023-03-26T08:49:38.510Z,10.20
2023-03-26T08:52:21.558Z,10.30
2023-03-26T08:55:07.859Z,10.30
2023-03-26T08:57:57.319Z,10.40
2023-03-26T09:00:54.671Z,10.50
2023-03-26T09:03:47.217Z,10.60
2023-03-26T09:06:37.153Z,10.70
2023-03-26T09:09:47.666Z,10.80
2023-03-26T09:12:33.249Z,10.80
2023-03-26T09:15:32.473Z,10.90
2023-03-26T09:18:02.870Z,11.00
2023-03-26T09:20:45.522Z,11.10
2023-03-26T09:23:37.139Z,11.10
2023-03-26T09:26:11.376Z,11.10
2023-03-26T09:29:04.532Z,11.20
2023-03-26T09:31:59.732Z,11.10
2023-03-26T09:34:31.229Z,11.00
2023-03-26T09:37:20.480Z,11.10
2023-03-26T09:40:01.495Z,11.10
2023-03-26T09:42:44.451Z,11.10
2023-03-26T09:45:51.174Z,11.10
2023-03-26T09:48:44.783Z,11.20
2023-03-26T09:51:41.686Z,11.30
2023-03-26T09:54:44.728Z,11.40
2023-03-26T09:57:51.236Z,11.40
2023-03-26T10:00:46.293Z,11.50
2023-03-26T10:03:29.271Z,11.50
2023-03-26T10:06:08.462Z,11.50
2023-03-26T10:08:53.846Z,11.60
2023-03-26T10:11:34.391Z,11.60
2023-03-26T10:14:22.965Z,11.60
2023-03-26T10:17:05.701Z,11.50
2023-03-26T10:20:09.849Z,11.40
2023-03-26T10:22:48.580Z,11.40
2023-03-26T10:25:36.524Z,11.40
2023-03-26T10:28:18.313Z,11.30
2023-03-26T10:31:16.723Z,11.40
2023-03-26T10:34:02.349Z,11.50
2023-03-26T10:36:44.428Z,11.60
2023-03-26T10:39:37.141Z,11.70
2023-03-26T10:42:21.311Z,11.80
2023-03-26T10:45:00.646Z,11.90
2023-03-26T10:47:48.554Z,11.90
2023-03-26T10:50:56.170Z,11.90
2023-03-26T10:53:45.028Z,11.90
2023-03-26T10:56:18.556Z,12.00
2023-03-26T10:58:49.768Z,11.90
2023-03-26T11:01:31.440Z,11.90
2023-03-26T11:04:08.894Z,11.90
2023-03-26T11:06:39.414Z,12.00
2023-03-26T11:09:38.535Z,12.00
2023-03-26T11:12:26.385Z,11.90
2023-03-26T11:15:11.767Z,11.80
2023-03-26T11:17:40.033Z,11.80
2023-03-26T11:20:48.089Z,11.80
2023-03-26T11:23:26.577Z,11.70
2023-03-26T11:26:26.772Z,11.60
2023-03-26T11:32:12.553Z,11.60
2023-03-26T11:34:36.777Z,11.60
2023-03-26T11:34:47.017Z,11.50
2023-03-26T11:37:45.684Z,11.40
2023-03-26T11:40:38.505Z,11.30
2023-03-26T11:43:10.597Z,11.20
2023-03-26T11:45:42.507Z,11.30
2023-03-26T11:48:31.975Z,11.30
2023-03-26T11:51:12.927Z,11.30
2023-03-26T11:53:40.253Z,11.10
2023-03-26T11:56:33.914Z,11.00
2023-03-26T11:59:27.324Z,10.90
2023-03-26T12:02:09.822Z,10.80
2023-03-26T12:04:42.366Z,10.80
2023-03-26T12:07:21.588Z,10.80
2023-03-26T12:09:58.033Z,10.70
2023-03-26T12:12:47.636Z,10.60
2023-03-26T12:15:19.238Z,10.50
2023-03-26T12:17:48.733Z,10.50
2023-03-26T12:20:25.602Z,10.40
2023-03-26T12:23:00.408Z,10.40
2023-03-26T12:25:33.190Z,10.40
2023-03-26T12:28:19.049Z,10.40
2023-03-26T12:31:03.610Z,10.30
2023-03-26T12:33:35.366Z,10.30
2023-03-26T12:36:25.610Z,10.30
2023-03-26T12:39:16.878Z,10.30
2023-03-26T12:44:44.853Z,10.30
2023-03-26T12:44:55.267Z,10.40
2023-03-26T12:47:58.925Z,10.40
2023-03-26T12:50:15.359Z,10.40
2023-03-26T12:53:19.479Z,10.40
2023-03-26T12:55:56.617Z,10.40
2023-03-26T12:58:29.224Z,10.30
2023-03-26T13:01:06.684Z,10.30
2023-03-26T13:04:00.515Z,10.20
2023-03-26T13:07:00.426Z,10.20
2023-03-26T13:09:53.505Z,10.20
2023-03-26T13:12:35.799Z,10.30
2023-03-26T13:15:18.151Z,10.10
2023-03-26T13:18:07.535Z,10.10
2023-03-26T13:20:48.227Z,9.90
2023-03-26T13:23:42.908Z,9.90
2023-03-26T13:26:32.600Z,9.90
2023-03-26T13:29:23.597Z,9.90
2023-03-26T13:32:08.869Z,10.00
2023-03-26T13:34:56.975Z,10.10
2023-03-26T13:37:52.641Z,10.10
2023-03-26T13:40:36.527Z,10.20
2023-03-26T13:43:21.625Z,10.30
2023-03-26T13:46:01.098Z,10.20
2023-03-26T13:48:56.070Z,10.20
2023-03-26T13:51:44.932Z,10.20
2023-03-26T13:54:48.668Z,10.40
2023-03-26T13:57:21.442Z,10.50
2023-03-26T14:00:06.507Z,10.60
2023-03-26T14:02:42.810Z,10.70
2023-03-26T14:05:25.020Z,10.60
2023-03-26T14:08:05.443Z,10.60
2023-03-26T14:10:37.834Z,10.70
2023-03-26T14:13:18.821Z,10.80
2023-03-26T14:16:17.290Z,10.90
2023-03-26T14:19:05.783Z,11.00
2023-03-26T14:22:01.036Z,11.20
2023-03-26T14:24:46.168Z,11.20
2023-03-26T14:27:44.918Z,11.30
2023-03-26T14:30:48.180Z,11.20
2023-03-26T14:33:28.023Z,11.00
2023-03-26T14:36:25.183Z,11.00
2023-03-26T14:39:18.793Z,11.00
2023-03-26T14:41:56.164Z,11.10
2023-03-26T14:45:03.056Z,11.00
2023-03-26T14:47:30.979Z,11.10
2023-03-26T14:50:23.466Z,10.90
2023-03-26T14:53:01.364Z,10.90
2023-03-26T14:55:49.863Z,11.00
2023-03-26T14:58:34.085Z,11.00
2023-03-26T15:01:28.517Z,11.00
2023-03-26T15:04:31.824Z,11.10
2023-03-26T15:07:18.915Z,11.10
2023-03-26T15:09:54.688Z,11.00
2023-03-26T15:12:37.113Z,11.00
2023-03-26T15:15:54.064Z,11.10
2023-03-26T15:18:34.389Z,11.20
2023-03-26T15:21:44.337Z,11.20
2023-03-26T15:24:26.928Z,11.30
2023-03-26T15:27:24.576Z,11.20
2023-03-26T15:30:21.682Z,11.20
2023-03-26T15:33:22.646Z,11.10
2023-03-26T15:36:14.112Z,11.00
2023-03-26T15:39:09.862Z,11.00
2023-03-26T15:42:04.798Z,10.90
2023-03-26T15:45:08.925Z,10.90
2023-03-26T15:47:47.852Z,11.00
2023-03-26T15:50:23.031Z,11.00
2023-03-26T15:53:12.563Z,11.10
2023-03-26T15:56:12.777Z,11.10
2023-03-26T15:59:00.698Z,11.20
2023-03-26T16:01:34.148Z,11.20
2023-03-26T16:04:17.352Z,11.10
2023-03-26T16:07:03.812Z,11.00
2023-03-26T16:09:47.512Z,10.80
2023-03-26T16:12:17.263Z,10.90
2023-03-26T16:15:04.620Z,10.80
2023-03-26T16:18:10.493Z,10.80
2023-03-26T16:20:51.047Z,10.70
2023-03-26T16:23:47.813Z,10.70
2023-03-26T16:26:37.249Z,10.70
2023-03-26T16:29:19.568Z,10.60
2023-03-26T16:32:17.848Z,10.60
2023-03-26T16:34:55.538Z,10.60
2023-03-26T16:37:39.976Z,10.60
2023-03-26T16:40:25.159Z,10.60
2023-03-26T16:43:16.845Z,10.50
2023-03-26T16:46:03.853Z,10.40
2023-03-26T16:48:50.735Z,10.40
2023-03-26T16:51:35.832Z,10.50
2023-03-26T16:54:46.109Z,10.50
2023-03-26T16:57:41.120Z,10.60
2023-03-26T17:00:16.451Z,10.60
2023-03-26T17:03:08.499Z,10.50
2023-03-26T17:05:56.814Z,10.40
2023-03-26T17:09:05.103Z,10.40
2023-03-26T17:11:32.199Z,10.40
2023-03-26T17:14:13.910Z,10.40
2023-03-26T17:16:48.743Z,10.30
2023-03-26T17:19:29.767Z,10.30
2023-03-26T17:22:04.634Z,10.30
2023-03-26T17:24:59.061Z,10.30
2023-03-26T17:28:27.435Z,10.30
2023-03-26T17:31:11.736Z,10.30
2023-03-26T17:33:39.585Z,10.20
2023-03-26T17:36:12.715Z,10.20
2023-03-26T17:38:39.619Z,10.20
2023-03-26T17:41:08.744Z,10.00
2023-03-26T17:43:51.808Z,10.00
2023-03-26T17:46:39.116Z,9.90
2023-03-26T17:49:11.972Z,9.80
2023-03-26T17:52:25.292Z,9.70
2023-03-26T17:54:56.148Z,9.50
2023-03-26T17:57:28.269Z,9.40
2023-03-26T18:00:00.107Z,9.20
2023-03-26T18:02:59.550Z,9.00
